Time;durP1;ratioP1;P1;durP2;ratioP2;P2;SDS_P1;SDS_P2;PMS_P1;PMS_P2;Temp;Humidity;BMP_temperature;BMP_pressure;BME280_temperature;BME280_humidity;BME280_pressure;Samples;Min_cycle;Max_cycle;Signal;HPM_P1;HPM_P2
2022/12/28 00:01:03;;;;;;;5.17;2.90;;;4.90;99.90;;;;;;5030224;28;20218;-73
2022/12/28 00:03:29;;;;;;;9.57;3.07;;;4.90;99.90;;;;;;5030600;28;20294;-71
2022/12/28 00:05:54;;;;;;;8.10;2.97;;;4.90;99.90;;;;;;5031354;28;20290;-72
2022/12/28 00:08:20;;;;;;;7.07;2.50;;;5.00;99.90;;;;;;5031075;28;20729;-72
2022/12/28 00:10:45;;;;;;;5.50;2.70;;;5.00;99.90;;;;;;5031402;28;20288;-72
2022/12/28 00:13:11;;;;;;;6.57;2.87;;;5.00;99.90;;;;;;5031905;28;20221;-73
2022/12/28 00:15:37;;;;;;;6.57;3.20;;;5.00;99.90;;;;;;5028993;28;20618;-70
2022/12/28 00:18:02;;;;;;;8.90;3.27;;;5.00;99.90;;;;;;5032432;28;20191;-72
2022/12/28 00:20:28;;;;;;;7.27;2.70;;;5.00;99.90;;;;;;5029934;28;20215;-72
2022/12/28 00:22:53;;;;;;;3.93;2.80;;;5.10;99.90;;;;;;5028626;28;20586;-72
2022/12/28 00:25:19;;;;;;;7.60;2.70;;;5.10;99.90;;;;;;5028202;28;20220;-72
2022/12/28 00:27:45;;;;;;;6.63;3.10;;;5.10;99.90;;;;;;5031887;28;20222;-72
2022/12/28 00:30:11;;;;;;;8.03;2.70;;;5.10;99.90;;;;;;5025060;28;20184;-73
2022/12/28 00:32:36;;;;;;;6.27;2.93;;;5.10;99.90;;;;;;5027346;28;20200;-72
2022/12/28 00:35:02;;;;;;;5.77;2.40;;;5.10;99.90;;;;;;5031371;28;20655;-73
2022/12/28 00:37:28;;;;;;;6.23;3.00;;;5.10;99.90;;;;;;5029086;28;20217;-72
2022/12/28 00:39:54;;;;;;;7.70;3.07;;;5.10;99.90;;;;;;5029522;28;20210;-72
2022/12/28 00:42:19;;;;;;;6.53;3.43;;;5.20;99.90;;;;;;5031793;28;20211;-72
2022/12/28 00:44:45;;;;;;;10.27;3.07;;;5.20;99.90;;;;;;5032061;28;20685;-73
2022/12/28 00:47:11;;;;;;;7.60;2.73;;;5.20;99.90;;;;;;5031310;28;20212;-72
2022/12/28 00:49:36;;;;;;;8.60;3.00;;;5.30;99.90;;;;;;5027313;28;20208;-72
2022/12/28 00:52:02;;;;;;;5.13;2.30;;;5.20;99.90;;;;;;5031096;28;20566;-73
2022/12/28 00:54:28;;;;;;;10.70;2.47;;;5.20;99.90;;;;;;5031259;28;20222;-72
2022/12/28 00:56:53;;;;;;;8.97;4.27;;;5.20;99.90;;;;;;5030285;28;20211;-72
2022/12/28 00:59:19;;;;;;;5.23;2.50;;;5.20;99.90;;;;;;5030669;28;20811;-71
2022/12/28 01:01:45;;;;;;;5.00;2.70;;;5.20;99.90;;;;;;5029965;28;20208;-72
2022/12/28 01:04:10;;;;;;;5.73;3.00;;;5.30;99.90;;;;;;5028899;28;20228;-71
2022/12/28 01:06:36;;;;;;;6.53;2.70;;;5.30;99.90;;;;;;5031049;28;20224;-72
2022/12/28 01:09:01;;;;;;;6.37;2.70;;;5.30;99.90;;;;;;5030183;28;20183;-72
2022/12/28 01:11:29;;;;;;;7.63;2.90;;;5.30;99.90;;;;;;5028303;28;20227;-72
2022/12/28 01:13:57;;;;;;;6.90;2.70;;;5.30;99.90;;;;;;5030879;28;20204;-72
2022/12/28 01:16:26;;;;;;;5.87;2.47;;;5.30;99.90;;;;;;5024620;28;20296;-72
2022/12/28 01:18:53;;;;;;;8.67;3.00;;;5.30;99.90;;;;;;5031407;28;20572;-73
2022/12/28 01:21:21;;;;;;;8.63;2.47;;;5.30;99.90;;;;;;5030117;28;20184;-71
2022/12/28 01:23:51;;;;;;;3.43;2.50;;;5.30;99.90;;;;;;5027586;28;20222;-71
2022/12/28 01:26:17;;;;;;;4.73;2.90;;;5.30;99.90;;;;;;5028367;28;20709;-73
2022/12/28 01:28:42;;;;;;;4.03;2.53;;;5.30;99.90;;;;;;5029516;28;20215;-71
2022/12/28 01:31:14;;;;;;;6.93;2.73;;;5.30;99.90;;;;;;5027641;28;20220;-70
2022/12/28 01:33:42;;;;;;;6.23;2.30;;;5.30;99.90;;;;;;5028078;28;20212;-73
2022/12/28 01:36:10;;;;;;;6.20;2.60;;;5.30;99.90;;;;;;5030785;28;20602;-72
2022/12/28 01:38:36;;;;;;;8.63;2.97;;;5.30;99.90;;;;;;5029468;28;20667;-73
2022/12/28 01:41:05;;;;;;;5.70;2.10;;;5.30;99.90;;;;;;5029882;28;20215;-72
2022/12/28 01:43:52;;;;;;;6.90;2.20;;;5.30;99.90;;;;;;5030617;28;20204;-72
2022/12/28 01:46:31;;;;;;;6.70;2.40;;;5.30;99.90;;;;;;5026850;28;20200;-71
2022/12/28 01:48:57;;;;;;;7.07;2.37;;;5.40;99.90;;;;;;5030350;28;20212;-72
2022/12/28 01:51:24;;;;;;;5.67;2.33;;;5.30;99.90;;;;;;5029813;28;20392;-72
2022/12/28 01:53:53;;;;;;;5.80;2.60;;;5.30;99.90;;;;;;5030885;28;20165;-72
2022/12/28 01:56:20;;;;;;;4.57;2.27;;;5.30;99.90;;;;;;5026059;28;20235;-72
2022/12/28 01:58:47;;;;;;;11.97;3.30;;;5.30;99.90;;;;;;5052902;23;20321;-72
2022/12/28 02:01:12;;;;;;;7.57;2.90;;;5.30;99.90;;;;;;5048421;28;20298;-72
2022/12/28 02:03:38;;;;;;;5.40;2.50;;;5.30;99.90;;;;;;5043520;28;20642;-71
2022/12/28 02:06:08;;;;;;;5.83;2.50;;;5.20;99.90;;;;;;5044324;28;20176;-71
2022/12/28 02:09:15;;;;;;;3.93;2.23;;;5.20;99.90;;;;;;5045290;28;20341;-70
2022/12/28 02:11:42;;;;;;;10.50;2.67;;;5.20;99.90;;;;;;5035517;28;20207;-72
2022/12/28 02:14:10;;;;;;;7.83;2.73;;;5.10;99.90;;;;;;5024577;28;20200;-71
2022/12/28 02:16:35;;;;;;;4.57;2.30;;;5.10;99.90;;;;;;5029740;28;20296;-72
2022/12/28 02:19:02;;;;;;;5.77;2.60;;;5.10;99.90;;;;;;5021186;28;20414;-73
2022/12/28 02:21:57;;;;;;;3.93;2.33;;;5.10;99.90;;;;;;5017375;28;20218;-71
2022/12/28 02:24:44;;;;;;;7.60;3.20;;;5.00;99.90;;;;;;5016029;28;20188;-72
2022/12/28 02:27:38;;;;;;;4.47;2.73;;;5.00;99.90;;;;;;5014950;28;20203;-72
2022/12/28 02:30:09;;;;;;;5.40;2.60;;;5.00;99.90;;;;;;4983153;28;20193;-71
2022/12/28 02:32:56;;;;;;;6.10;2.67;;;5.00;99.90;;;;;;5014101;28;20576;-73
2022/12/28 02:35:53;;;;;;;4.97;2.53;;;5.00;99.90;;;;;;5021267;28;20219;-72
2022/12/28 02:38:45;;;;;;;6.63;2.70;;;5.00;99.90;;;;;;5019465;28;20213;-72
2022/12/28 02:41:17;;;;;;;9.90;2.93;;;5.00;99.90;;;;;;5015026;28;20269;-72
2022/12/28 02:43:43;;;;;;;5.63;2.53;;;5.00;99.90;;;;;;5021844;28;20201;-73
2022/12/28 02:52:34;;;;;;;5.57;2.77;;;5.00;99.90;;;;;;5016058;28;20274;-72
2022/12/28 02:58:42;;;;;;;5.63;2.80;;;4.90;99.90;;;;;;5014249;28;20234;-71
2022/12/28 03:01:16;;;;;;;4.53;2.93;;;4.90;99.90;;;;;;5018519;28;20770;-69
2022/12/28 03:04:21;;;;;;;7.13;3.43;;;4.90;99.90;;;;;;5024989;28;20222;-73
2022/12/28 03:10:25;;;;;;;3.60;2.63;;;4.80;99.90;;;;;;5020953;28;20751;-72
2022/12/28 03:13:41;;;;;;;6.40;3.10;;;4.80;99.90;;;;;;5024271;28;20216;-72
2022/12/28 03:15:53;;;;;;;5.53;2.50;;;4.80;99.90;;;;;;5022957;28;20622;-71
2022/12/28 03:32:14;;;;;;;6.10;4.23;;;4.80;99.90;;;;;;5039193;28;20584;-72
2022/12/28 03:34:40;;;;;;;5.20;3.20;;;4.80;99.90;;;;;;5039057;28;20213;-71
2022/12/28 03:37:30;;;;;;;7.00;2.87;;;4.80;99.90;;;;;;5050494;28;20223;-72
2022/12/28 03:40:21;;;;;;;5.57;3.20;;;4.80;99.90;;;;;;5036305;28;20222;-72
2022/12/28 03:45:47;;;;;;;7.87;3.00;;;4.80;99.90;;;;;;5034506;28;20262;-72
2022/12/28 03:48:15;;;;;;;6.60;3.00;;;4.70;99.90;;;;;;5043178;28;20305;-72
2022/12/28 03:50:43;;;;;;;4.60;3.00;;;4.70;99.90;;;;;;5039338;28;20191;-72
2022/12/28 03:53:09;;;;;;;5.93;2.50;;;4.70;99.90;;;;;;5034366;28;20233;-70
2022/12/28 03:55:36;;;;;;;8.73;2.53;;;4.70;99.90;;;;;;5038684;28;20256;-72
2022/12/28 03:58:04;;;;;;;5.30;3.07;;;4.70;99.90;;;;;;5038966;28;20593;-73
2022/12/28 04:00:29;;;;;;;8.50;2.83;;;4.70;99.90;;;;;;5034847;28;20219;-73
2022/12/28 04:02:55;;;;;;;5.43;2.90;;;4.70;99.90;;;;;;5041641;28;20664;-70
2022/12/28 04:05:21;;;;;;;3.90;2.60;;;4.70;99.90;;;;;;5040839;28;20289;-72
2022/12/28 04:07:46;;;;;;;5.67;3.30;;;4.70;99.90;;;;;;5038098;28;20311;-71
2022/12/28 04:10:12;;;;;;;8.17;2.50;;;4.70;99.90;;;;;;5038696;28;20847;-72
2022/12/28 04:12:37;;;;;;;5.67;2.97;;;4.70;99.90;;;;;;5038756;28;20267;-72
2022/12/28 04:15:04;;;;;;;4.97;2.60;;;4.60;99.90;;;;;;5039218;28;20177;-71
2022/12/28 04:17:30;;;;;;;6.33;2.47;;;4.60;99.90;;;;;;5039243;28;20221;-72
2022/12/28 04:19:55;;;;;;;4.03;3.10;;;4.60;99.90;;;;;;5041071;28;20223;-71
2022/12/28 04:22:21;;;;;;;11.13;3.03;;;4.60;99.90;;;;;;5034936;28;20338;-72
2022/12/28 04:24:47;;;;;;;7.03;2.50;;;4.60;99.90;;;;;;5039593;28;20219;-71
2022/12/28 04:27:12;;;;;;;6.33;2.70;;;4.60;99.90;;;;;;5035904;28;20214;-71
2022/12/28 04:29:39;;;;;;;3.30;2.13;;;4.60;99.90;;;;;;5038773;28;20196;-71
2022/12/28 04:32:05;;;;;;;3.70;2.37;;;4.50;99.90;;;;;;5038384;28;20640;-70
2022/12/28 04:34:30;;;;;;;6.93;2.53;;;4.60;99.90;;;;;;5035354;28;20205;-72
2022/12/28 04:36:56;;;;;;;4.30;2.20;;;4.60;99.90;;;;;;5041307;28;20302;-70
2022/12/28 04:39:22;;;;;;;6.93;2.40;;;4.50;99.90;;;;;;5040191;28;20205;-71
2022/12/28 04:41:48;;;;;;;4.40;2.10;;;4.60;99.90;;;;;;5043189;28;20257;-72
2022/12/28 04:44:14;;;;;;;4.33;2.10;;;4.60;99.90;;;;;;5039030;28;20700;-72
2022/12/28 04:46:39;;;;;;;5.67;2.93;;;4.60;99.90;;;;;;5033194;28;20210;-72
2022/12/28 04:49:05;;;;;;;8.90;2.10;;;4.60;99.90;;;;;;5037835;28;20233;-71
2022/12/28 04:51:30;;;;;;;5.13;2.20;;;4.60;99.90;;;;;;5038322;28;20237;-72
2022/12/28 04:53:56;;;;;;;4.37;2.30;;;4.60;99.90;;;;;;5035722;28;20179;-72
2022/12/28 04:56:24;;;;;;;6.90;2.30;;;4.60;99.90;;;;;;5036877;28;20632;-71
2022/12/28 04:58:54;;;;;;;2.60;1.73;;;4.60;99.90;;;;;;5039506;28;20223;-73
2022/12/28 05:01:20;;;;;;;4.47;2.30;;;4.50;99.90;;;;;;5037971;28;20291;-72
2022/12/28 05:03:47;;;;;;;7.97;2.17;;;4.50;99.90;;;;;;5039744;28;20297;-71
2022/12/28 05:06:15;;;;;;;6.50;2.00;;;4.50;99.90;;;;;;5036781;28;20701;-71
2022/12/28 05:08:42;;;;;;;7.83;3.33;;;4.50;99.90;;;;;;5042653;28;20257;-72
2022/12/28 05:11:14;;;;;;;4.23;1.97;;;4.50;99.90;;;;;;5038347;28;20332;-71
2022/12/28 05:13:40;;;;;;;5.93;2.20;;;4.50;99.90;;;;;;5036619;28;20265;-72
2022/12/28 05:16:09;;;;;;;7.23;2.23;;;4.50;99.90;;;;;;5037388;28;20279;-72
2022/12/28 05:18:35;;;;;;;4.23;2.03;;;4.60;99.90;;;;;;5042644;28;20219;-72
2022/12/28 05:21:06;;;;;;;4.13;1.90;;;4.60;99.90;;;;;;5035662;28;20178;-71
2022/12/28 05:23:33;;;;;;;3.37;1.90;;;4.60;99.90;;;;;;5059937;28;20215;-73
2022/12/28 05:25:59;;;;;;;7.00;2.67;;;4.60;99.90;;;;;;5038064;28;20263;-71
2022/12/28 05:28:26;;;;;;;4.17;2.10;;;4.60;99.90;;;;;;5034011;28;20604;-72
2022/12/28 05:30:52;;;;;;;6.27;2.43;;;4.60;99.90;;;;;;5039149;28;20213;-73
2022/12/28 05:33:18;;;;;;;4.37;1.80;;;4.60;99.90;;;;;;5039789;28;20675;-73
2022/12/28 05:35:44;;;;;;;5.90;2.10;;;4.60;99.90;;;;;;5036557;28;20556;-73
2022/12/28 05:38:10;;;;;;;2.93;1.77;;;4.60;99.90;;;;;;5038388;28;20739;-72
2022/12/28 05:40:35;;;;;;;10.70;2.50;;;4.60;99.90;;;;;;5031486;28;20306;-72
2022/12/28 05:43:01;;;;;;;6.40;2.17;;;4.60;99.90;;;;;;5037304;28;20561;-72
2022/12/28 05:45:27;;;;;;;4.10;1.90;;;4.60;99.90;;;;;;5037598;28;20201;-73
2022/12/28 05:47:55;;;;;;;5.37;1.70;;;4.60;99.90;;;;;;5034376;28;20210;-70
2022/12/28 05:50:21;;;;;;;10.40;2.80;;;4.60;99.90;;;;;;5035025;28;20217;-74
2022/12/28 05:52:47;;;;;;;4.50;2.10;;;4.60;99.90;;;;;;5042718;28;21032;-72
2022/12/28 05:55:12;;;;;;;6.00;1.90;;;4.60;99.90;;;;;;5034396;28;20233;-73
2022/12/28 05:57:38;;;;;;;3.93;1.70;;;4.60;99.90;;;;;;5037856;28;20213;-73
2022/12/28 06:00:04;;;;;;;4.57;1.80;;;4.60;99.90;;;;;;5040089;28;20285;-71
2022/12/28 06:02:30;;;;;;;4.23;1.80;;;4.70;99.90;;;;;;5034222;28;20337;-73
2022/12/28 06:04:55;;;;;;;4.40;1.73;;;4.70;99.90;;;;;;5040493;28;20297;-72
2022/12/28 06:07:21;;;;;;;3.97;1.80;;;4.70;99.90;;;;;;5035337;28;20246;-73
2022/12/28 06:09:47;;;;;;;3.50;1.70;;;4.70;99.90;;;;;;5050840;28;20217;-70
2022/12/28 06:12:12;;;;;;;1.90;1.50;;;4.70;99.90;;;;;;5055022;28;20592;-71
2022/12/28 06:14:38;;;;;;;5.13;1.80;;;4.70;99.90;;;;;;5033229;28;20321;-71
2022/12/28 06:17:04;;;;;;;2.73;1.83;;;4.70;99.90;;;;;;5037236;28;20214;-71
2022/12/28 06:19:29;;;;;;;5.27;1.90;;;4.70;99.90;;;;;;5040405;28;20219;-71
2022/12/28 06:21:55;;;;;;;2.67;1.60;;;4.70;99.90;;;;;;5033952;28;20617;-71
2022/12/28 06:24:20;;;;;;;4.37;1.50;;;4.70;99.90;;;;;;5036159;28;20291;-71
2022/12/28 06:26:46;;;;;;;3.53;1.90;;;4.80;99.90;;;;;;5048299;28;20292;-71
2022/12/28 06:29:12;;;;;;;4.67;1.60;;;4.90;99.90;;;;;;5033744;28;20221;-70
2022/12/28 06:31:42;;;;;;;2.80;1.73;;;4.90;99.90;;;;;;5039269;28;20211;-71
2022/12/28 06:34:08;;;;;;;2.23;1.23;;;4.90;99.90;;;;;;5040781;28;20213;-68
2022/12/28 06:36:37;;;;;;;2.57;1.67;;;4.90;99.90;;;;;;5037115;28;20223;-72
2022/12/28 06:39:05;;;;;;;6.53;1.90;;;4.90;99.90;;;;;;5051491;28;20198;-71
2022/12/28 06:41:31;;;;;;;5.90;1.67;;;4.90;99.90;;;;;;5037264;28;20226;-72
2022/12/28 06:43:57;;;;;;;6.17;1.93;;;4.90;99.90;;;;;;5040987;28;20206;-71
2022/12/28 06:46:25;;;;;;;7.90;2.27;;;4.90;99.90;;;;;;5045241;28;20210;-72
2022/12/28 06:48:52;;;;;;;7.97;1.87;;;4.90;99.90;;;;;;5039037;28;20712;-72
2022/12/28 06:51:21;;;;;;;5.70;1.70;;;4.90;99.90;;;;;;5042648;28;20262;-72
2022/12/28 06:53:48;;;;;;;3.80;2.17;;;4.90;99.90;;;;;;5042159;28;20183;-71
2022/12/28 06:56:27;;;;;;;3.93;1.60;;;4.90;99.90;;;;;;5047753;28;20215;-72
2022/12/28 06:58:53;;;;;;;8.73;2.33;;;4.90;99.90;;;;;;5040096;28;20656;-69
2022/12/28 07:01:27;;;;;;;3.70;1.70;;;4.90;99.90;;;;;;5038217;28;20262;-71
2022/12/28 07:03:55;;;;;;;6.83;2.13;;;4.90;99.90;;;;;;5040363;28;20212;-69
2022/12/28 07:06:22;;;;;;;6.03;1.60;;;4.90;99.90;;;;;;5043655;28;20324;-72
2022/12/28 07:08:48;;;;;;;6.23;2.00;;;4.90;99.90;;;;;;5052467;28;20207;-72
2022/12/28 07:11:20;;;;;;;9.03;2.13;;;4.90;99.90;;;;;;5050316;28;20612;-72
2022/12/28 07:13:46;;;;;;;6.40;2.17;;;4.90;99.90;;;;;;5051204;28;20232;-71
2022/12/28 07:16:14;;;;;;;3.60;1.90;;;4.80;99.90;;;;;;5037394;28;20211;-71
2022/12/28 07:18:40;;;;;;;3.63;1.60;;;4.90;99.90;;;;;;5041209;28;20772;-71
2022/12/28 07:21:09;;;;;;;3.97;1.80;;;4.90;99.90;;;;;;5042613;28;20171;-71
2022/12/28 07:23:35;;;;;;;4.77;1.77;;;4.90;99.90;;;;;;5037469;28;20208;-70
2022/12/28 07:26:08;;;;;;;4.63;2.10;;;4.90;99.90;;;;;;5043502;28;20221;-72
2022/12/28 07:28:36;;;;;;;5.73;2.30;;;4.90;99.90;;;;;;5035251;28;20330;-72
2022/12/28 07:31:13;;;;;;;3.77;2.40;;;4.90;99.90;;;;;;5039194;28;20773;-72
2022/12/28 07:33:40;;;;;;;7.03;2.40;;;4.90;99.90;;;;;;5044117;28;20223;-71
2022/12/28 07:36:07;;;;;;;4.87;2.23;;;4.90;99.90;;;;;;5037198;28;20183;-72
2022/12/28 07:38:33;;;;;;;4.90;1.93;;;4.90;99.90;;;;;;5039386;28;20249;-72
2022/12/28 07:41:26;;;;;;;3.40;2.00;;;4.90;99.90;;;;;;5043005;28;20207;-72
2022/12/28 07:43:52;;;;;;;5.37;2.00;;;5.00;99.90;;;;;;5039040;28;20219;-71
2022/12/28 07:46:21;;;;;;;7.13;2.40;;;5.00;99.90;;;;;;5039648;28;20204;-72
2022/12/28 07:48:47;;;;;;;5.33;2.20;;;5.00;99.90;;;;;;5041515;28;20753;-71
2022/12/28 07:51:25;;;;;;;6.43;2.50;;;5.00;99.90;;;;;;5037203;28;20867;-72
2022/12/28 07:53:52;;;;;;;5.40;2.53;;;5.10;99.90;;;;;;5051295;28;20880;-71
2022/12/28 07:56:19;;;;;;;5.27;2.37;;;5.10;99.90;;;;;;5039315;28;20321;-72
2022/12/28 07:58:49;;;;;;;5.13;2.40;;;5.10;99.90;;;;;;5071457;23;20230;-72
2022/12/28 08:01:16;;;;;;;6.80;2.33;;;5.10;99.90;;;;;;5016625;28;20211;-72
2022/12/28 08:03:42;;;;;;;7.37;2.30;;;5.10;99.90;;;;;;5008881;28;20735;-73
2022/12/28 08:06:13;;;;;;;6.33;1.93;;;5.10;99.90;;;;;;5004511;28;20209;-70
2022/12/28 08:08:42;;;;;;;6.50;2.93;;;5.20;99.90;;;;;;5007955;28;20207;-72
2022/12/28 08:11:11;;;;;;;4.33;2.50;;;5.10;99.90;;;;;;4986100;28;20292;-70
2022/12/28 08:13:38;;;;;;;5.20;2.53;;;5.20;99.90;;;;;;4984083;28;20693;-72
2022/12/28 08:16:05;;;;;;;4.17;2.37;;;5.20;99.90;;;;;;4990184;28;20225;-72
2022/12/28 08:18:32;;;;;;;4.37;2.70;;;5.20;99.90;;;;;;4987320;28;20216;-70
2022/12/28 08:21:02;;;;;;;4.03;2.33;;;5.20;99.90;;;;;;4985045;28;20686;-72
2022/12/28 08:23:29;;;;;;;5.27;2.30;;;5.30;99.90;;;;;;4989475;28;20213;-72
2022/12/28 08:25:55;;;;;;;5.30;2.37;;;5.30;99.90;;;;;;4983644;28;20206;-72
2022/12/28 08:28:21;;;;;;;6.50;2.40;;;5.40;99.90;;;;;;4991158;28;20560;-71
2022/12/28 08:30:46;;;;;;;6.83;2.23;;;5.40;99.90;;;;;;4988021;28;20288;-72
2022/12/28 08:33:12;;;;;;;3.83;2.40;;;5.40;99.90;;;;;;4988341;28;20647;-73
2022/12/28 08:35:38;;;;;;;5.63;2.50;;;5.40;99.90;;;;;;4991444;28;20177;-72
2022/12/28 08:38:03;;;;;;;4.53;2.40;;;5.40;99.90;;;;;;4985758;28;20220;-72
2022/12/28 08:40:29;;;;;;;4.53;2.50;;;5.50;99.90;;;;;;4983332;28;20213;-73
2022/12/28 08:42:58;;;;;;;6.13;2.57;;;5.50;99.90;;;;;;4987008;28;20584;-71
2022/12/28 08:45:25;;;;;;;5.57;2.67;;;5.50;99.90;;;;;;4987098;28;20174;-73
2022/12/28 08:47:51;;;;;;;6.10;2.80;;;5.60;99.90;;;;;;4990809;28;20346;-72
2022/12/28 08:50:17;;;;;;;4.80;2.67;;;5.60;99.90;;;;;;4988145;28;20628;-72
2022/12/28 08:52:43;;;;;;;6.63;2.37;;;5.60;99.90;;;;;;4984134;28;20703;-72
2022/12/28 08:55:08;;;;;;;3.30;1.90;;;5.60;99.90;;;;;;4988864;28;20210;-72
2022/12/28 08:57:34;;;;;;;4.50;2.60;;;5.70;99.90;;;;;;4990599;28;20337;-72
2022/12/28 09:00:00;;;;;;;6.80;2.83;;;5.70;99.90;;;;;;4984618;28;20213;-72
2022/12/28 09:02:25;;;;;;;5.63;2.63;;;5.80;99.90;;;;;;4990386;28;20758;-73
2022/12/28 09:04:51;;;;;;;7.23;2.53;;;5.80;99.90;;;;;;4985837;28;20224;-73
2022/12/28 09:07:16;;;;;;;5.20;2.70;;;5.90;99.90;;;;;;4985540;28;20292;-73
2022/12/28 09:09:42;;;;;;;3.83;2.17;;;5.90;99.90;;;;;;4985743;28;20213;-72
2022/12/28 09:12:08;;;;;;;6.67;2.67;;;5.90;99.90;;;;;;4985789;28;20261;-70
2022/12/28 09:14:33;;;;;;;5.27;2.00;;;5.90;99.90;;;;;;4984681;28;20198;-72
2022/12/28 09:17:00;;;;;;;3.40;2.10;;;5.90;99.90;;;;;;4987697;28;20221;-73
2022/12/28 09:19:26;;;;;;;4.70;2.40;;;5.90;99.90;;;;;;4989373;28;20220;-72
2022/12/28 09:21:52;;;;;;;5.00;2.63;;;5.90;99.90;;;;;;4983361;28;20206;-73
2022/12/28 09:24:18;;;;;;;4.20;2.40;;;6.00;99.90;;;;;;4987026;28;20247;-72
2022/12/28 09:26:44;;;;;;;5.97;2.40;;;6.00;99.90;;;;;;4983918;28;20579;-72
2022/12/28 09:29:12;;;;;;;5.23;2.13;;;6.00;99.90;;;;;;4984801;28;20222;-70
2022/12/28 09:31:39;;;;;;;4.70;1.90;;;6.00;99.90;;;;;;4988741;28;20213;-73
2022/12/28 09:34:07;;;;;;;4.70;2.10;;;6.00;99.90;;;;;;4982440;28;20225;-72
2022/12/28 09:36:38;;;;;;;3.93;2.50;;;6.10;99.90;;;;;;4986258;28;20646;-72
2022/12/28 09:39:12;;;;;;;2.73;1.80;;;6.10;99.90;;;;;;4988737;28;20194;-72
2022/12/28 09:42:04;;;;;;;4.53;2.50;;;6.10;99.90;;;;;;4983418;28;20249;-72
2022/12/28 09:44:47;;;;;;;7.73;2.13;;;6.20;99.90;;;;;;4984216;28;20212;-72
2022/12/28 09:47:21;;;;;;;5.23;2.20;;;6.20;99.90;;;;;;4983808;28;20327;-72
2022/12/28 09:50:16;;;;;;;4.27;2.73;;;6.20;99.90;;;;;;4984923;28;20208;-72
2022/12/28 09:53:22;;;;;;;5.47;2.20;;;6.30;99.90;;;;;;4983312;28;20705;-72
2022/12/28 09:56:01;;;;;;;5.80;2.33;;;6.30;99.90;;;;;;4986516;28;20208;-72
2022/12/28 09:58:29;;;;;;;4.80;2.27;;;6.40;99.90;;;;;;4985880;28;20209;-71
2022/12/28 10:00:58;;;;;;;5.03;2.70;;;6.40;99.90;;;;;;4980732;28;20245;-72
2022/12/28 10:03:31;;;;;;;6.33;2.37;;;6.40;99.90;;;;;;4986086;28;20177;-72
2022/12/28 10:05:58;;;;;;;4.00;2.10;;;6.50;99.90;;;;;;4984447;28;20633;-73
2022/12/28 10:08:26;;;;;;;4.87;2.17;;;6.50;99.90;;;;;;4984543;28;20210;-73
2022/12/28 10:10:54;;;;;;;4.23;2.20;;;6.60;99.90;;;;;;4985114;28;20268;-73
2022/12/28 10:13:23;;;;;;;3.83;1.93;;;6.60;99.90;;;;;;4982384;28;20688;-73
2022/12/28 10:15:50;;;;;;;5.40;2.30;;;6.60;99.90;;;;;;4986535;28;20221;-73
2022/12/28 10:18:21;;;;;;;4.80;1.97;;;6.70;99.90;;;;;;4988151;28;20181;-73
2022/12/28 10:20:47;;;;;;;3.13;2.00;;;6.70;99.90;;;;;;4981836;28;20248;-71
2022/12/28 10:23:18;;;;;;;5.30;2.00;;;6.70;99.90;;;;;;4988254;28;20589;-73
2022/12/28 10:25:45;;;;;;;4.90;2.30;;;6.70;99.90;;;;;;4985478;28;20610;-73
2022/12/28 10:28:11;;;;;;;5.00;2.60;;;6.70;99.90;;;;;;4982234;28;20737;-73
2022/12/28 10:31:00;;;;;;;4.27;2.50;;;6.80;99.90;;;;;;4984598;28;20217;-73
2022/12/28 10:33:26;;;;;;;5.50;2.50;;;6.80;99.90;;;;;;4984816;28;20648;-70
2022/12/28 10:35:54;;;;;;;3.23;2.23;;;6.80;99.90;;;;;;4983411;28;20181;-72
2022/12/28 10:38:20;;;;;;;4.70;2.50;;;6.80;99.90;;;;;;4982268;28;20252;-72
2022/12/28 10:41:00;;;;;;;4.83;2.40;;;6.80;99.90;;;;;;4985569;28;20209;-72
2022/12/28 10:43:32;;;;;;;4.33;2.30;;;6.80;99.90;;;;;;4986332;28;20227;-72
2022/12/28 10:46:00;;;;;;;5.27;2.40;;;6.90;99.90;;;;;;4988523;28;20641;-72
2022/12/28 10:48:38;;;;;;;5.77;2.93;;;6.90;99.90;;;;;;4983432;28;20288;-72
2022/12/28 10:51:11;;;;;;;2.93;2.17;;;6.90;99.90;;;;;;4987097;28;20174;-72
2022/12/28 10:53:48;;;;;;;3.17;2.40;;;6.90;99.90;;;;;;4984482;28;20237;-72
2022/12/28 10:56:28;;;;;;;4.83;2.20;;;7.00;99.90;;;;;;4981368;28;20209;-72
2022/12/28 10:59:16;;;;;;;3.87;2.10;;;7.00;99.90;;;;;;4984284;28;20209;-71
2022/12/28 11:01:42;;;;;;;5.40;2.37;;;7.00;99.90;;;;;;4985725;28;20216;-71
2022/12/28 11:04:21;;;;;;;3.63;2.30;;;7.10;99.90;;;;;;4986657;28;20289;-72
2022/12/28 11:06:55;;;;;;;5.30;2.20;;;7.10;99.90;;;;;;4984267;28;20201;-73
2022/12/28 11:09:34;;;;;;;5.17;1.87;;;7.20;99.90;;;;;;4978410;28;20680;-72
2022/12/28 11:12:32;;;;;;;3.87;2.13;;;7.20;99.90;;;;;;4987105;28;20197;-73
2022/12/28 11:14:58;;;;;;;3.73;2.40;;;7.30;99.90;;;;;;4980272;28;20207;-72
2022/12/28 11:17:27;;;;;;;7.13;2.60;;;7.30;99.90;;;;;;4986203;28;20318;-72
2022/12/28 11:20:02;;;;;;;2.80;2.10;;;7.40;99.90;;;;;;4988798;28;20348;-71
2022/12/28 11:22:28;;;;;;;7.13;2.50;;;7.40;99.90;;;;;;4988593;28;20213;-72
2022/12/28 11:24:56;;;;;;;3.10;2.20;;;7.40;99.90;;;;;;4987576;28;20597;-72
2022/12/28 11:27:23;;;;;;;4.33;2.00;;;7.50;99.90;;;;;;4988371;28;20198;-72
2022/12/28 11:29:52;;;;;;;3.73;2.00;;;7.40;99.90;;;;;;4985844;28;20201;-73
2022/12/28 11:32:29;;;;;;;3.50;1.83;;;7.50;99.90;;;;;;4986611;28;20213;-72
2022/12/28 11:34:56;;;;;;;2.67;1.80;;;7.50;99.90;;;;;;4984760;28;20533;-73
2022/12/28 11:37:23;;;;;;;4.43;1.90;;;7.60;99.90;;;;;;4992136;28;20205;-72
2022/12/28 11:39:50;;;;;;;2.83;1.80;;;7.60;99.90;;;;;;4989026;28;20372;-71
2022/12/28 11:42:31;;;;;;;3.03;2.10;;;7.60;99.90;;;;;;4991708;28;20178;-72
2022/12/28 11:45:00;;;;;;;3.77;1.87;;;7.70;99.90;;;;;;5002529;28;20262;-73
2022/12/28 11:47:32;;;;;;;2.93;1.67;;;7.70;99.90;;;;;;4991419;28;20236;-71
2022/12/28 11:50:40;;;;;;;2.40;1.63;;;7.70;99.90;;;;;;4982074;28;20286;-71
2022/12/28 11:53:32;;;;;;;3.87;2.47;;;7.80;99.90;;;;;;4980650;28;20258;-73
2022/12/28 11:55:57;;;;;;;4.27;2.17;;;7.80;99.90;;;;;;4983262;28;20265;-73
2022/12/28 11:58:29;;;;;;;2.70;1.77;;;7.80;99.90;;;;;;4990872;28;20799;-73
2022/12/28 12:00:55;;;;;;;4.10;1.97;;;7.80;99.90;;;;;;4989103;28;20217;-72
2022/12/28 12:03:56;;;;;;;3.10;1.97;;;7.90;99.90;;;;;;4985555;28;20217;-73
2022/12/28 12:06:40;;;;;;;3.13;2.00;;;7.90;99.90;;;;;;4989476;28;20576;-73
2022/12/28 12:09:21;;;;;;;3.77;2.13;;;7.90;99.90;;;;;;4985884;28;20206;-72
2022/12/28 12:11:51;;;;;;;4.03;1.63;;;7.90;99.90;;;;;;4989923;28;20766;-72
2022/12/28 12:14:23;;;;;;;3.97;1.60;;;7.90;99.90;;;;;;4987754;28;20233;-73
2022/12/28 12:16:52;;;;;;;3.23;1.63;;;7.90;99.90;;;;;;4981954;28;20285;-71
2022/12/28 12:19:30;;;;;;;3.87;2.30;;;7.90;99.90;;;;;;4985857;28;20654;-73
2022/12/28 12:22:05;;;;;;;3.93;2.20;;;7.90;99.90;;;;;;4989718;28;20209;-73
2022/12/28 12:24:59;;;;;;;3.20;1.80;;;7.90;99.90;;;;;;4988198;28;20583;-73
2022/12/28 12:27:35;;;;;;;2.47;1.83;;;8.00;99.90;;;;;;4985784;28;20213;-73
2022/12/28 12:30:15;;;;;;;5.03;1.90;;;8.10;99.90;;;;;;4984832;28;20196;-72
2022/12/28 12:32:51;;;;;;;3.63;1.80;;;8.20;99.90;;;;;;4990900;28;20201;-72
2022/12/28 12:35:20;;;;;;;3.00;1.70;;;8.20;99.90;;;;;;4986841;28;20680;-73
2022/12/28 12:37:52;;;;;;;6.33;3.30;;;8.30;99.90;;;;;;4983469;28;20206;-73
2022/12/28 12:40:20;;;;;;;4.17;2.20;;;8.30;99.90;;;;;;4983704;28;20213;-73
2022/12/28 12:43:01;;;;;;;4.30;2.30;;;8.30;99.90;;;;;;4987869;28;20210;-72
2022/12/28 12:45:48;;;;;;;4.53;1.97;;;8.30;99.90;;;;;;4988083;28;20661;-72
2022/12/28 12:49:10;;;;;;;4.17;1.67;;;8.30;99.90;;;;;;4986074;28;20200;-73
2022/12/28 12:51:57;;;;;;;1.83;1.50;;;8.40;99.90;;;;;;4951155;28;20228;-73
2022/12/28 12:54:48;;;;;;;2.60;1.80;;;8.40;99.90;;;;;;4968370;28;20183;-73
2022/12/28 12:57:22;;;;;;;3.43;1.70;;;8.50;99.90;;;;;;4982520;28;20178;-71
2022/12/28 13:00:09;;;;;;;3.27;2.30;;;8.60;99.90;;;;;;4985659;28;20215;-72
2022/12/28 13:02:59;;;;;;;3.10;1.83;;;8.60;99.90;;;;;;4966103;28;20211;-73
2022/12/28 13:05:27;;;;;;;5.63;2.30;;;8.70;99.90;;;;;;4986146;28;20669;-73
2022/12/28 13:07:55;;;;;;;4.27;1.60;;;8.70;99.90;;;;;;4971162;28;20717;-71
2022/12/28 13:10:32;;;;;;;3.63;1.57;;;8.70;99.90;;;;;;4964513;28;20206;-73
2022/12/28 13:12:59;;;;;;;3.00;1.90;;;8.80;99.90;;;;;;4968378;28;20217;-73
2022/12/28 13:15:25;;;;;;;2.40;1.50;;;8.80;99.90;;;;;;4970789;28;20245;-73
2022/12/28 13:18:04;;;;;;;3.47;1.87;;;8.70;99.90;;;;;;4968933;28;20792;-72
2022/12/28 13:20:30;;;;;;;2.50;1.23;;;8.80;99.90;;;;;;4963113;28;20221;-73
2022/12/28 13:22:56;;;;;;;3.10;1.47;;;8.80;99.90;;;;;;4962927;28;20214;-72
2022/12/28 13:25:29;;;;;;;4.73;1.90;;;8.80;99.90;;;;;;4967599;28;20221;-73
2022/12/28 13:27:57;;;;;;;5.10;1.93;;;8.80;99.90;;;;;;4967170;28;20231;-72
2022/12/28 13:30:24;;;;;;;4.23;1.70;;;8.70;99.90;;;;;;4969598;28;20720;-73
2022/12/28 13:33:03;;;;;;;4.57;2.30;;;8.70;99.90;;;;;;4967198;28;20178;-73
2022/12/28 13:35:32;;;;;;;4.53;1.93;;;8.70;99.90;;;;;;4969764;28;20220;-73
2022/12/28 13:37:59;;;;;;;4.53;1.80;;;8.80;99.90;;;;;;4961148;28;20208;-72
2022/12/28 13:40:25;;;;;;;6.00;2.20;;;8.80;99.90;;;;;;4969130;28;20242;-72
2022/12/28 13:43:02;;;;;;;3.03;1.80;;;8.80;99.90;;;;;;4963824;28;20242;-73
2022/12/28 13:45:29;;;;;;;2.53;1.60;;;8.80;99.90;;;;;;4968059;28;20218;-72